PWSweather.com
Personal Weather Stations
Station Observations
VPOKROGLO
Kal Nad Kanalom, PrimorskaSI

Kal Nad KanalomPrimorskaSI

Lat: 46.072, Lon: 13.734

Elevation: 2526

Station Type: WS-2355

http://www.okroglovreme.com

High Low Average
Temperature 55.4°F13.0°F 38.1°F3.4°F 45.4°F7.4°F
Dew Point 38.2°F3.4°F 21.3°F-5.9°F 30.9°F-0.6°F
Winds 9.6 mph SSW15.4 mph SSW Calm Calm 3.2 mph 5.1 mph
Wind Gusts 16.6 mph26.7 mph -- 6.9 mph11.1 mph
Humidity 81% 41% 58%
Pressure 30.35 in1027.80 in 30.11 in1019.60 in -
Precipitation 0.00 in0.00 in - -
Hour Temp Dew Point Humidity Winds Wind Gusts Pressure Precip Precip Rate Daily Precip Total
12:00 AM 39.9°F4.4°C 26.3°F-3.2°C 58% Calm Calm -- 30.35 in1027.8 mb 0.00 in0.0 mm 0.00 in0.0 mm 0.00 in0.0 mm
12:15 AM 39.9°F4.4°C 25.5°F-3.6°C 56% Calm Calm 0.9 mph1.4 kmh 30.35 in1027.8 mb 0.00 in0.0 mm 0.00 in0.0 mm 0.00 in0.0 mm
12:30 AM 39.9°F4.4°C 25.0°F-3.9°C 55% Calm Calm -- 30.35 in1027.8 mb 0.00 in0.0 mm 0.00 in0.0 mm 0.00 in0.0 mm
12:45 AM 39.6°F4.2°C 24.7°F-4.1°C 55% 0.3 mph S0.5 kmh S 2.0 mph3.2 kmh 30.35 in1027.8 mb 0.00 in0.0 mm 0.00 in0.0 mm 0.00 in0.0 mm
01:00 AM 39.2°F4.0°C 24.8°F-4.0°C 56% 1.6 mph S2.6 kmh S 3.4 mph5.5 kmh 30.34 in1027.4 mb 0.00 in0.0 mm 0.00 in0.0 mm 0.00 in0.0 mm
01:15 AM 39.0°F3.9°C 25.5°F-3.6°C 58% 2.2 mph SSE3.5 kmh SSE 4.0 mph6.4 kmh 30.34 in1027.4 mb 0.00 in0.0 mm 0.00 in0.0 mm 0.00 in0.0 mm
01:30 AM 39.0°F3.9°C 25.9°F-3.4°C 59% 1.7 mph SSE2.7 kmh SSE 3.8 mph6.1 kmh 30.34 in1027.4 mb 0.00 in0.0 mm 0.00 in0.0 mm 0.00 in0.0 mm
01:45 AM 38.8°F3.8°C 25.7°F-3.5°C 59% 1.8 mph SE2.9 kmh SE 4.5 mph7.2 kmh 30.33 in1027.1 mb 0.00 in0.0 mm 0.00 in0.0 mm 0.00 in0.0 mm
02:00 AM 39.0°F3.9°C 26.3°F-3.2°C 60% 2.5 mph SE4.0 kmh SE 4.5 mph7.2 kmh 30.32 in1026.8 mb 0.00 in0.0 mm 0.00 in0.0 mm 0.00 in0.0 mm
02:15 AM 38.8°F3.8°C 27.3°F-2.6°C 63% 1.4 mph SSE2.3 kmh SSE 3.1 mph5.0 kmh 30.33 in1027.1 mb 0.00 in0.0 mm 0.00 in0.0 mm 0.00 in0.0 mm
02:30 AM 39.0°F3.9°C 29.0°F-1.7°C 67% Calm Calm 1.1 mph1.8 kmh 30.32 in1026.8 mb 0.00 in0.0 mm 0.00 in0.0 mm 0.00 in0.0 mm
02:45 AM 39.0°F3.9°C 29.7°F-1.3°C 69% 0.2 mph SE0.3 kmh SE 1.8 mph2.9 kmh 30.32 in1026.8 mb 0.00 in0.0 mm 0.00 in0.0 mm 0.00 in0.0 mm
03:00 AM 39.0°F3.9°C 30.4°F-0.9°C 71% 0.2 mph SE0.3 kmh SE 2.0 mph3.2 kmh 30.32 in1026.8 mb 0.00 in0.0 mm 0.00 in0.0 mm 0.00 in0.0 mm
03:15 AM 39.0°F3.9°C 30.8°F-0.7°C 72% 0.4 mph SE0.6 kmh SE 2.0 mph3.2 kmh 30.31 in1026.4 mb 0.00 in0.0 mm 0.00 in0.0 mm 0.00 in0.0 mm
03:30 AM 39.0°F3.9°C 31.1°F-0.5°C 73% 1.2 mph SE1.9 kmh SE 2.9 mph4.7 kmh 30.31 in1026.4 mb 0.00 in0.0 mm 0.00 in0.0 mm 0.00 in0.0 mm
03:45 AM 39.0°F3.9°C 31.4°F-0.3°C 74% 1.2 mph SE1.9 kmh SE 3.6 mph5.8 kmh 30.31 in1026.4 mb 0.00 in0.0 mm 0.00 in0.0 mm 0.00 in0.0 mm
04:00 AM 38.8°F3.8°C 31.9°F-0.1°C 76% 0.3 mph SE0.5 kmh SE 2.0 mph3.2 kmh 30.31 in1026.4 mb 0.00 in0.0 mm 0.00 in0.0 mm 0.00 in0.0 mm
04:15 AM 38.5°F3.6°C 31.6°F-0.2°C 76% 0.5 mph SE0.8 kmh SE 2.9 mph4.7 kmh 30.30 in1026.1 mb 0.00 in0.0 mm 0.00 in0.0 mm 0.00 in0.0 mm
04:30 AM 38.5°F3.6°C 31.6°F-0.2°C 76% 1.1 mph SE1.8 kmh SE 3.1 mph5.0 kmh 30.30 in1026.1 mb 0.00 in0.0 mm 0.00 in0.0 mm 0.00 in0.0 mm
04:45 AM 38.5°F3.6°C 31.9°F-0.1°C 77% 0.9 mph SE1.4 kmh SE 2.7 mph4.3 kmh 30.30 in1026.1 mb 0.00 in0.0 mm 0.00 in0.0 mm 0.00 in0.0 mm
05:00 AM 38.3°F3.5°C 31.7°F-0.2°C 77% 0.9 mph SE1.4 kmh SE 2.7 mph4.3 kmh 30.30 in1026.1 mb 0.00 in0.0 mm 0.00 in0.0 mm 0.00 in0.0 mm
05:15 AM 38.1°F3.4°C 31.9°F-0.1°C 78% 1.2 mph SSE1.9 kmh SSE 3.1 mph5.0 kmh 30.30 in1026.1 mb 0.00 in0.0 mm 0.00 in0.0 mm 0.00 in0.0 mm
05:30 AM 38.1°F3.4°C 32.2°F0.1°C 79% 0.9 mph SSE1.4 kmh SSE 2.5 mph4.0 kmh 30.29 in1025.7 mb 0.00 in0.0 mm 0.00 in0.0 mm 0.00 in0.0 mm
05:45 AM 38.1°F3.4°C 32.2°F0.1°C 79% 1.1 mph SSE1.8 kmh SSE 3.6 mph5.8 kmh 30.30 in1026.1 mb 0.00 in0.0 mm 0.00 in0.0 mm 0.00 in0.0 mm
06:00 AM 38.1°F3.4°C 32.5°F0.3°C 80% 0.4 mph SSE0.6 kmh SSE 2.9 mph4.7 kmh 30.30 in1026.1 mb 0.00 in0.0 mm 0.00 in0.0 mm 0.00 in0.0 mm
06:15 AM 38.5°F3.6°C 32.8°F0.4°C 80% 0.5 mph SSE0.8 kmh SSE 2.7 mph4.3 kmh 30.30 in1026.1 mb 0.00 in0.0 mm 0.00 in0.0 mm 0.00 in0.0 mm
06:30 AM 38.8°F3.8°C 33.2°F0.7°C 80% 0.8 mph SSE1.3 kmh SSE 2.7 mph4.3 kmh 30.30 in1026.1 mb 0.00 in0.0 mm 0.00 in0.0 mm 0.00 in0.0 mm
06:45 AM 39.0°F3.9°C 33.7°F0.9°C 81% 0.5 mph SSE0.8 kmh SSE 2.2 mph3.5 kmh 30.30 in1026.1 mb 0.00 in0.0 mm 0.00 in0.0 mm 0.00 in0.0 mm
07:00 AM 39.9°F4.4°C 34.6°F1.4°C 81% 0.1 mph SSE0.2 kmh SSE 1.3 mph2.1 kmh 30.30 in1026.1 mb 0.00 in0.0 mm 0.00 in0.0 mm 0.00 in0.0 mm
07:15 AM 41.2°F5.1°C 35.5°F1.9°C 80% 0.5 mph SSE0.8 kmh SSE 2.5 mph4.0 kmh 30.30 in1026.1 mb 0.00 in0.0 mm 0.00 in0.0 mm 0.00 in0.0 mm
07:30 AM 43.0°F6.1°C 36.6°F2.6°C 78% 1.1 mph SSW1.8 kmh SSW 4.0 mph6.4 kmh 30.29 in1025.7 mb 0.00 in0.0 mm 0.00 in0.0 mm 0.00 in0.0 mm
07:45 AM 42.6°F5.9°C 35.9°F2.2°C 77% 0.1 mph SSW0.2 kmh SSW 1.6 mph2.6 kmh 30.30 in1026.1 mb 0.00 in0.0 mm 0.00 in0.0 mm 0.00 in0.0 mm
08:00 AM 43.2°F6.2°C 36.4°F2.4°C 77% 0.7 mph SSW1.1 kmh SSW 2.9 mph4.7 kmh 30.29 in1025.7 mb 0.00 in0.0 mm 0.00 in0.0 mm 0.00 in0.0 mm
08:15 AM 44.6°F7.0°C 37.2°F2.9°C 75% 1.6 mph SW2.6 kmh SW 7.8 mph12.6 kmh 30.29 in1025.7 mb 0.00 in0.0 mm 0.00 in0.0 mm 0.00 in0.0 mm
08:30 AM 47.1°F8.4°C 37.8°F3.2°C 70% 1.8 mph SW2.9 kmh SW 8.1 mph13.0 kmh 30.29 in1025.7 mb 0.00 in0.0 mm 0.00 in0.0 mm 0.00 in0.0 mm
08:45 AM 48.0°F8.9°C 37.2°F2.9°C 65% 2.7 mph SSW4.3 kmh SSW 6.7 mph10.8 kmh 30.28 in1025.4 mb 0.00 in0.0 mm 0.00 in0.0 mm 0.00 in0.0 mm
09:00 AM 48.0°F8.9°C 37.2°F2.9°C 66% 4.6 mph SSW7.4 kmh SSW 9.6 mph15.4 kmh 30.28 in1025.4 mb 0.00 in0.0 mm 0.00 in0.0 mm 0.00 in0.0 mm
09:15 AM 46.6°F8.1°C 36.6°F2.6°C 68% 5.9 mph S9.5 kmh S 12.1 mph19.5 kmh 30.27 in1025.1 mb 0.00 in0.0 mm 0.00 in0.0 mm 0.00 in0.0 mm
09:30 AM 47.7°F8.7°C 35.7°F2.1°C 63% 7.2 mph SSW11.6 kmh SSW 12.5 mph20.1 kmh 30.27 in1025.1 mb 0.00 in0.0 mm 0.00 in0.0 mm 0.00 in0.0 mm
09:45 AM 49.3°F9.6°C 36.0°F2.2°C 60% 6.0 mph SSW9.7 kmh SSW 13.0 mph20.9 kmh 30.27 in1025.1 mb 0.00 in0.0 mm 0.00 in0.0 mm 0.00 in0.0 mm
10:00 AM 49.3°F9.6°C 36.0°F2.2°C 60% 5.5 mph S8.9 kmh S 13.0 mph20.9 kmh 30.27 in1025.1 mb 0.00 in0.0 mm 0.00 in0.0 mm 0.00 in0.0 mm
10:15 AM 50.9°F10.5°C 36.6°F2.6°C 58% 5.1 mph SW8.2 kmh SW 11.9 mph19.2 kmh 30.27 in1025.1 mb 0.00 in0.0 mm 0.00 in0.0 mm 0.00 in0.0 mm
10:30 AM 52.2°F11.2°C 36.5°F2.5°C 55% 4.0 mph W6.4 kmh W 10.7 mph17.2 kmh 30.27 in1025.1 mb 0.00 in0.0 mm 0.00 in0.0 mm 0.00 in0.0 mm
10:45 AM 52.5°F11.4°C 36.3°F2.4°C 54% 5.2 mph WSW8.4 kmh WSW 11.0 mph17.7 kmh 30.27 in1025.1 mb 0.00 in0.0 mm 0.00 in0.0 mm 0.00 in0.0 mm
11:00 AM 51.4°F10.8°C 37.6°F3.1°C 59% 4.5 mph SW7.2 kmh SW 10.5 mph16.9 kmh 30.27 in1025.1 mb 0.00 in0.0 mm 0.00 in0.0 mm 0.00 in0.0 mm
11:15 AM 52.2°F11.2°C 36.9°F2.7°C 56% 6.4 mph SW10.3 kmh SW 14.1 mph22.7 kmh 30.26 in1024.7 mb 0.00 in0.0 mm 0.00 in0.0 mm 0.00 in0.0 mm
11:30 AM 49.3°F9.6°C 34.7°F1.5°C 57% 9.4 mph S15.1 kmh S 15.0 mph24.1 kmh 30.25 in1024.4 mb 0.00 in0.0 mm 0.00 in0.0 mm 0.00 in0.0 mm
11:45 AM 53.2°F11.8°C 37.9°F3.3°C 56% 2.7 mph W4.3 kmh W 6.9 mph11.1 kmh 30.25 in1024.4 mb 0.00 in0.0 mm 0.00 in0.0 mm 0.00 in0.0 mm
12:00 PM 51.4°F10.8°C 35.8°F2.1°C 55% 4.4 mph SSW7.1 kmh SSW 13.0 mph20.9 kmh 30.25 in1024.4 mb 0.00 in0.0 mm 0.00 in0.0 mm 0.00 in0.0 mm
12:15 PM 54.7°F12.6°C 37.4°F3.0°C 52% 4.1 mph WSW6.6 kmh WSW 12.3 mph19.8 kmh 30.24 in1024.0 mb 0.00 in0.0 mm 0.00 in0.0 mm 0.00 in0.0 mm
12:30 PM 54.0°F12.2°C 36.2°F2.3°C 51% 6.8 mph SW10.9 kmh SW 12.1 mph19.5 kmh 30.23 in1023.7 mb 0.00 in0.0 mm 0.00 in0.0 mm 0.00 in0.0 mm
12:45 PM 52.9°F11.6°C 36.2°F2.3°C 53% 5.9 mph SW9.5 kmh SW 13.0 mph20.9 kmh 30.22 in1023.4 mb 0.00 in0.0 mm 0.00 in0.0 mm 0.00 in0.0 mm
01:00 PM 53.8°F12.1°C 37.5°F3.1°C 54% 7.3 mph SSW11.7 kmh SSW 15.7 mph25.3 kmh 30.22 in1023.4 mb 0.00 in0.0 mm 0.00 in0.0 mm 0.00 in0.0 mm
01:15 PM 55.4°F13.0°C 38.1°F3.4°C 52% 5.9 mph WSW9.5 kmh WSW 13.0 mph20.9 kmh 30.22 in1023.4 mb 0.00 in0.0 mm 0.00 in0.0 mm 0.00 in0.0 mm
01:30 PM 53.4°F11.9°C 36.7°F2.6°C 53% 6.6 mph SW10.6 kmh SW 11.4 mph18.3 kmh 30.21 in1023.0 mb 0.00 in0.0 mm 0.00 in0.0 mm 0.00 in0.0 mm
01:45 PM 52.2°F11.2°C 37.4°F3.0°C 57% 7.9 mph SSW12.7 kmh SSW 15.2 mph24.5 kmh 30.20 in1022.7 mb 0.00 in0.0 mm 0.00 in0.0 mm 0.00 in0.0 mm
02:00 PM 52.5°F11.4°C 38.2°F3.4°C 58% 7.9 mph S12.7 kmh S 14.8 mph23.8 kmh 30.20 in1022.7 mb 0.00 in0.0 mm 0.00 in0.0 mm 0.00 in0.0 mm
02:15 PM 53.4°F11.9°C 38.1°F3.4°C 56% 5.2 mph WSW8.4 kmh WSW 11.2 mph18.0 kmh 30.19 in1022.4 mb 0.00 in0.0 mm 0.00 in0.0 mm 0.00 in0.0 mm
02:30 PM 54.1°F12.3°C 37.8°F3.2°C 54% 6.6 mph SW10.6 kmh SW 14.1 mph22.7 kmh 30.18 in1022.0 mb 0.00 in0.0 mm 0.00 in0.0 mm 0.00 in0.0 mm
02:45 PM 54.3°F12.4°C 38.0°F3.3°C 54% 5.1 mph W8.2 kmh W 14.1 mph22.7 kmh 30.17 in1021.7 mb 0.00 in0.0 mm 0.00 in0.0 mm 0.00 in0.0 mm
03:00 PM 53.4°F11.9°C 37.6°F3.1°C 55% 7.2 mph SW11.6 kmh SW 14.3 mph23.0 kmh 30.17 in1021.7 mb 0.00 in0.0 mm 0.00 in0.0 mm 0.00 in0.0 mm
03:15 PM 51.8°F11.0°C 35.2°F1.8°C 53% 9.6 mph SSW15.4 kmh SSW 15.7 mph25.3 kmh 30.16 in1021.3 mb 0.00 in0.0 mm 0.00 in0.0 mm 0.00 in0.0 mm
03:30 PM 51.1°F10.6°C 33.6°F0.9°C 51% 9.5 mph S15.3 kmh S 15.7 mph25.3 kmh 30.16 in1021.3 mb 0.00 in0.0 mm 0.00 in0.0 mm 0.00 in0.0 mm
03:45 PM 51.4°F10.8°C 33.4°F0.8°C 50% 8.7 mph SSW14.0 kmh SSW 16.6 mph26.7 kmh 30.14 in1020.7 mb 0.00 in0.0 mm 0.00 in0.0 mm 0.00 in0.0 mm
04:00 PM 52.0°F11.1°C 32.9°F0.5°C 48% 7.4 mph SSW11.9 kmh SSW 15.4 mph24.8 kmh 30.14 in1020.7 mb 0.00 in0.0 mm 0.00 in0.0 mm 0.00 in0.0 mm
04:15 PM 50.5°F10.3°C 30.5°F-0.8°C 46% 9.4 mph S15.1 kmh S 14.1 mph22.7 kmh 30.14 in1020.7 mb 0.00 in0.0 mm 0.00 in0.0 mm 0.00 in0.0 mm
04:30 PM 51.1°F10.6°C 31.0°F-0.6°C 46% 6.7 mph S10.8 kmh S 13.2 mph21.2 kmh 30.14 in1020.7 mb 0.00 in0.0 mm 0.00 in0.0 mm 0.00 in0.0 mm
04:45 PM 50.2°F10.1°C 30.2°F-1.0°C 46% 7.2 mph S11.6 kmh S 12.8 mph20.6 kmh 30.14 in1020.7 mb 0.00 in0.0 mm 0.00 in0.0 mm 0.00 in0.0 mm
05:00 PM 50.5°F10.3°C 30.5°F-0.8°C 46% 7.7 mph SSW12.4 kmh SSW 13.2 mph21.2 kmh 30.13 in1020.3 mb 0.00 in0.0 mm 0.00 in0.0 mm 0.00 in0.0 mm
05:15 PM 49.6°F9.8°C 29.7°F-1.3°C 46% 7.7 mph S12.4 kmh S 12.1 mph19.5 kmh 30.13 in1020.3 mb 0.00 in0.0 mm 0.00 in0.0 mm 0.00 in0.0 mm
05:30 PM 49.3°F9.6°C 29.4°F-1.4°C 46% 8.3 mph S13.4 kmh S 12.8 mph20.6 kmh 30.13 in1020.3 mb 0.00 in0.0 mm 0.00 in0.0 mm 0.00 in0.0 mm
05:45 PM 48.6°F9.2°C 28.7°F-1.8°C 46% 8.2 mph S13.2 kmh S 13.4 mph21.6 kmh 30.12 in1020.0 mb 0.00 in0.0 mm 0.00 in0.0 mm 0.00 in0.0 mm
06:00 PM 47.8°F8.8°C 27.5°F-2.5°C 45% 7.2 mph S11.6 kmh S 11.9 mph19.2 kmh 30.12 in1020.0 mb 0.00 in0.0 mm 0.00 in0.0 mm 0.00 in0.0 mm
06:15 PM 47.5°F8.6°C 26.6°F-3.0°C 44% 6.7 mph SSW10.8 kmh SSW 12.3 mph19.8 kmh 30.11 in1019.6 mb 0.00 in0.0 mm 0.00 in0.0 mm 0.00 in0.0 mm
06:30 PM 46.2°F7.9°C 25.5°F-3.6°C 44% 6.1 mph S9.8 kmh S 10.3 mph16.6 kmh 30.11 in1019.6 mb 0.00 in0.0 mm 0.00 in0.0 mm 0.00 in0.0 mm
06:45 PM 45.5°F7.5°C 25.4°F-3.7°C 45% 5.1 mph S8.2 kmh S 9.2 mph14.8 kmh 30.12 in1020.0 mb 0.00 in0.0 mm 0.00 in0.0 mm 0.00 in0.0 mm
07:00 PM 44.8°F7.1°C 25.2°F-3.8°C 46% 3.4 mph SSE5.5 kmh SSE 6.7 mph10.8 kmh 30.12 in1020.0 mb 0.00 in0.0 mm 0.00 in0.0 mm 0.00 in0.0 mm
07:15 PM 44.8°F7.1°C 25.2°F-3.8°C 46% 2.0 mph SSE3.2 kmh SSE 6.9 mph11.1 kmh 30.12 in1020.0 mb 0.00 in0.0 mm 0.00 in0.0 mm 0.00 in0.0 mm
07:30 PM 44.8°F7.1°C 25.2°F-3.8°C 46% 2.7 mph SSE4.3 kmh SSE 4.5 mph7.2 kmh 30.13 in1020.3 mb 0.00 in0.0 mm 0.00 in0.0 mm 0.00 in0.0 mm
07:45 PM 44.8°F7.1°C 24.7°F-4.1°C 45% 1.1 mph SSE1.8 kmh SSE 3.6 mph5.8 kmh 30.13 in1020.3 mb 0.00 in0.0 mm 0.00 in0.0 mm 0.00 in0.0 mm
07:56 PM 44.8°F7.1°C 24.7°F-4.1°C 45% Calm Calm -- 30.13 in1020.3 mb 0.00 in0.0 mm 0.00 in0.0 mm 0.00 in0.0 mm
08:00 PM 44.8°F7.1°C 24.7°F-4.1°C 45% Calm Calm -- 30.13 in1020.3 mb 0.00 in0.0 mm 0.00 in0.0 mm 0.00 in0.0 mm
08:15 PM 44.6°F7.0°C 24.5°F-4.2°C 45% 0.3 mph SSE0.5 kmh SSE 2.0 mph3.2 kmh 30.13 in1020.3 mb 0.00 in0.0 mm 0.00 in0.0 mm 0.00 in0.0 mm
08:30 PM 44.4°F6.9°C 24.4°F-4.2°C 45% 0.3 mph SE0.5 kmh SE 1.6 mph2.6 kmh 30.13 in1020.3 mb 0.00 in0.0 mm 0.00 in0.0 mm 0.00 in0.0 mm
08:45 PM 44.4°F6.9°C 24.4°F-4.2°C 45% 0.5 mph SE0.8 kmh SE 2.9 mph4.7 kmh 30.13 in1020.3 mb 0.00 in0.0 mm 0.00 in0.0 mm 0.00 in0.0 mm
09:00 PM 44.1°F6.7°C 24.6°F-4.1°C 46% 0.3 mph SSE0.5 kmh SSE 2.0 mph3.2 kmh 30.13 in1020.3 mb 0.00 in0.0 mm 0.00 in0.0 mm 0.00 in0.0 mm
09:15 PM 43.7°F6.5°C 24.2°F-4.3°C 46% 0.3 mph SSE0.5 kmh SSE 1.6 mph2.6 kmh 30.13 in1020.3 mb 0.00 in0.0 mm 0.00 in0.0 mm 0.00 in0.0 mm
09:30 PM 43.9°F6.6°C 24.9°F-3.9°C 47% 0.3 mph SSE0.5 kmh SSE 2.2 mph3.5 kmh 30.13 in1020.3 mb 0.00 in0.0 mm 0.00 in0.0 mm 0.00 in0.0 mm
09:45 PM 43.9°F6.6°C 24.9°F-3.9°C 47% 0.2 mph SSE0.3 kmh SSE 2.2 mph3.5 kmh 30.12 in1020.0 mb 0.00 in0.0 mm 0.00 in0.0 mm 0.00 in0.0 mm
10:00 PM 43.9°F6.6°C 23.9°F-4.5°C 45% 0.1 mph SSE0.2 kmh SSE 1.3 mph2.1 kmh 30.13 in1020.3 mb 0.00 in0.0 mm 0.00 in0.0 mm 0.00 in0.0 mm
10:15 PM 43.9°F6.6°C 23.9°F-4.5°C 45% Calm Calm 1.3 mph2.1 kmh 30.12 in1020.0 mb 0.00 in0.0 mm 0.00 in0.0 mm 0.00 in0.0 mm
10:30 PM 43.9°F6.6°C 23.4°F-4.8°C 44% 0.1 mph SSE0.2 kmh SSE 1.1 mph1.8 kmh 30.12 in1020.0 mb 0.00 in0.0 mm 0.00 in0.0 mm 0.00 in0.0 mm
10:45 PM 43.5°F6.4°C 23.6°F-4.7°C 45% Calm Calm 1.3 mph2.1 kmh 30.12 in1020.0 mb 0.00 in0.0 mm 0.00 in0.0 mm 0.00 in0.0 mm
11:00 PM 43.3°F6.3°C 22.9°F-5.1°C 44% 0.5 mph SSE0.8 kmh SSE 2.2 mph3.5 kmh 30.12 in1020.0 mb 0.00 in0.0 mm 0.00 in0.0 mm 0.00 in0.0 mm
11:15 PM 43.2°F6.2°C 21.6°F-5.8°C 42% 0.4 mph SSE0.6 kmh SSE 2.2 mph3.5 kmh 30.11 in1019.6 mb 0.00 in0.0 mm 0.00 in0.0 mm 0.00 in0.0 mm
11:30 PM 43.5°F6.4°C 21.3°F-5.9°C 41% 0.1 mph SSE0.2 kmh SSE 1.1 mph1.8 kmh 30.11 in1019.6 mb 0.00 in0.0 mm 0.00 in0.0 mm 0.00 in0.0 mm
11:45 PM 43.5°F6.4°C 21.3°F-5.9°C 41% Calm Calm -- 30.12 in1020.0 mb 0.00 in0.0 mm 0.00 in0.0 mm 0.00 in0.0 mm